Terminal Aerodrome Forecast
Issued by NWS Green Bay, WI

Home | Current Version | Previous Version | Graphics & Text | Print | Product List | Glossary On
Versions: 1 2 3 4 5 6 7 8 9 10 11 12 13 14 15 16 17 18 19 20 21 22 23 24 25 26 27 28 29
000
FTUS43 KGRB 241100
TAFGRB
TAF
KGRB 241123Z 2412/2512 23003KT 3SM BR OVC005
     FM241400 23003KT 5SM BR BKN007 OVC012
     FM241600 23007KT P6SM SCT008 BKN250
     FM241800 22007KT P6SM BKN250
     FM250100 20005KT 5SM BR BKN050
     FM250800 26005KT 5SM BR SCT250=

USA.gov is the U.S. government's official web portal to all federal, state and local government web resources and services.